sensor_id;sensor_type;location;lat;lon;timestamp;pressure;altitude;pressure_sealevel;temperature;humidity
29985;BME280;17387;42.690;23.328;2022-08-19T00:00:28;47429.19;;;-144.02;60.11
29985;BME280;17387;42.690;23.328;2022-08-19T00:02:54;47396.69;;;-144.02;59.68
29985;BME280;17387;42.690;23.328;2022-08-19T00:05:20;47396.69;;;-144.02;60.31
29985;BME280;17387;42.690;23.328;2022-08-19T00:07:50;47437.31;;;-144.02;60.03
29985;BME280;17387;42.690;23.328;2022-08-19T00:10:19;47425.13;;;-144.02;59.92
29985;BME280;17387;42.690;23.328;2022-08-19T00:12:45;47376.38;;;-144.02;59.57
29985;BME280;17387;42.690;23.328;2022-08-19T00:15:12;47419.03;;;-144.02;58.54
29985;BME280;17387;42.690;23.328;2022-08-19T00:17:40;47410.91;;;-144.02;58.50
29985;BME280;17387;42.690;23.328;2022-08-19T00:20:07;47392.63;;;-144.02;58.32
29985;BME280;17387;42.690;23.328;2022-08-19T00:22:34;47386.53;;;-144.02;58.96
29985;BME280;17387;42.690;23.328;2022-08-19T00:25:00;47372.31;;;-144.02;58.82
29985;BME280;17387;42.690;23.328;2022-08-19T00:27:25;47412.94;;;-144.02;59.39
29985;BME280;17387;42.690;23.328;2022-08-19T00:29:51;47396.69;;;-144.02;59.33
29985;BME280;17387;42.690;23.328;2022-08-19T00:32:17;47376.38;;;-144.02;59.29
29985;BME280;17387;42.690;23.328;2022-08-19T00:34:42;47567.28;;;-144.02;58.77
29985;BME280;17387;42.690;23.328;2022-08-19T00:37:09;47349.97;;;-144.02;59.39
29985;BME280;17387;42.690;23.328;2022-08-19T00:39:34;47408.88;;;-144.02;59.77
29985;BME280;17387;42.690;23.328;2022-08-19T00:42:00;47406.84;;;-144.02;59.53
29985;BME280;17387;42.690;23.328;2022-08-19T00:44:28;47376.38;;;-144.02;60.12
29985;BME280;17387;42.690;23.328;2022-08-19T00:46:57;47402.78;;;-144.02;59.92
29985;BME280;17387;42.690;23.328;2022-08-19T00:49:31;47559.19;;;-144.02;59.79
29985;BME280;17387;42.690;23.328;2022-08-19T00:52:21;47394.66;;;-144.02;59.95
29985;BME280;17387;42.690;23.328;2022-08-19T00:54:47;47398.72;;;-144.02;60.19
29985;BME280;17387;42.690;23.328;2022-08-19T00:57:17;47392.63;;;-144.02;60.65
29985;BME280;17387;42.690;23.328;2022-08-19T00:59:46;47414.97;;;-144.02;61.59
29985;BME280;17387;42.690;23.328;2022-08-19T01:02:16;47439.34;;;-144.02;61.54
29985;BME280;17387;42.690;23.328;2022-08-19T01:04:41;47417.00;;;-144.02;61.72
29985;BME280;17387;42.690;23.328;2022-08-19T01:07:07;47412.94;;;-144.02;62.16
29985;BME280;17387;42.690;23.328;2022-08-19T01:09:33;47404.81;;;-144.02;62.36
29985;BME280;17387;42.690;23.328;2022-08-19T01:11:59;47392.63;;;-144.02;62.36
29985;BME280;17387;42.690;23.328;2022-08-19T01:14:25;47380.44;;;-144.02;62.67
29985;BME280;17387;42.690;23.328;2022-08-19T01:16:52;47447.47;;;-144.02;62.43
29985;BME280;17387;42.690;23.328;2022-08-19T01:21:52;47437.31;;;-144.02;62.16
29985;BME280;17387;42.690;23.328;2022-08-19T01:24:20;47451.53;;;-144.02;62.24
29985;BME280;17387;42.690;23.328;2022-08-19T01:26:47;47404.81;;;-144.02;61.45
29985;BME280;17387;42.690;23.328;2022-08-19T01:29:13;47429.19;;;-144.02;60.77
29985;BME280;17387;42.690;23.328;2022-08-19T01:31:39;47406.84;;;-144.02;60.41
29985;BME280;17387;42.690;23.328;2022-08-19T01:34:05;47358.09;;;-144.02;60.50
29985;BME280;17387;42.690;23.328;2022-08-19T01:36:40;47425.13;;;-144.02;60.98
29985;BME280;17387;42.690;23.328;2022-08-19T01:39:10;47412.94;;;-144.02;60.92
29985;BME280;17387;42.690;23.328;2022-08-19T01:41:36;47396.69;;;-144.02;60.60
29985;BME280;17387;42.690;23.328;2022-08-19T01:44:03;47414.97;;;-144.02;61.08
29985;BME280;17387;42.690;23.328;2022-08-19T01:46:29;47429.19;;;-144.02;61.93
29985;BME280;17387;42.690;23.328;2022-08-19T01:48:55;47417.00;;;-144.02;61.17
29985;BME280;17387;42.690;23.328;2022-08-19T01:51:21;47425.13;;;-144.02;61.14
29985;BME280;17387;42.690;23.328;2022-08-19T01:53:48;47423.09;;;-144.02;62.38
29985;BME280;17387;42.690;23.328;2022-08-19T01:56:14;47429.19;;;-144.02;62.47
29985;BME280;17387;42.690;23.328;2022-08-19T01:58:43;47435.28;;;-144.02;62.51
29985;BME280;17387;42.690;23.328;2022-08-19T02:01:11;47421.06;;;-144.02;62.54
29985;BME280;17387;42.690;23.328;2022-08-19T02:03:37;47404.81;;;-144.02;62.61
29985;BME280;17387;42.690;23.328;2022-08-19T02:06:03;47423.09;;;-144.02;62.36
29985;BME280;17387;42.690;23.328;2022-08-19T02:08:32;47384.50;;;-144.02;63.06
29985;BME280;17387;42.690;23.328;2022-08-19T02:10:58;47384.50;;;-144.02;62.69
29985;BME280;17387;42.690;23.328;2022-08-19T02:13:25;47402.78;;;-144.02;62.47
29985;BME280;17387;42.690;23.328;2022-08-19T02:15:50;47429.19;;;-144.02;62.53
29985;BME280;17387;42.690;23.328;2022-08-19T02:18:16;47398.72;;;-144.02;62.75
29985;BME280;17387;42.690;23.328;2022-08-19T02:20:43;47451.53;;;-144.02;62.44
29985;BME280;17387;42.690;23.328;2022-08-19T02:23:11;47431.22;;;-144.02;61.53
29985;BME280;17387;42.690;23.328;2022-08-19T02:25:37;47482.00;;;-144.02;61.89
29985;BME280;17387;42.690;23.328;2022-08-19T02:28:03;47412.94;;;-144.02;62.30
29985;BME280;17387;42.690;23.328;2022-08-19T02:30:29;47396.69;;;-144.02;62.32
29985;BME280;17387;42.690;23.328;2022-08-19T02:32:55;47390.59;;;-144.02;62.54
29985;BME280;17387;42.690;23.328;2022-08-19T02:35:20;47453.56;;;-144.02;64.06
29985;BME280;17387;42.690;23.328;2022-08-19T02:37:46;47400.75;;;-144.02;63.03
29985;BME280;17387;42.690;23.328;2022-08-19T02:40:31;47433.25;;;-144.02;62.86
29985;BME280;17387;42.690;23.328;2022-08-19T02:43:04;47384.50;;;-144.02;63.78
29985;BME280;17387;42.690;23.328;2022-08-19T02:45:34;47404.81;;;-144.02;64.77
29985;BME280;17387;42.690;23.328;2022-08-19T02:47:59;47412.94;;;-144.02;65.55
29985;BME280;17387;42.690;23.328;2022-08-19T02:50:25;47433.25;;;-144.02;64.03
29985;BME280;17387;42.690;23.328;2022-08-19T02:52:51;47412.94;;;-144.02;64.48
29985;BME280;17387;42.690;23.328;2022-08-19T02:55:16;47429.19;;;-144.02;64.30
29985;BME280;17387;42.690;23.328;2022-08-19T02:57:41;47398.72;;;-144.02;64.43
29985;BME280;17387;42.690;23.328;2022-08-19T03:00:08;47429.19;;;-144.02;64.35
29985;BME280;17387;42.690;23.328;2022-08-19T03:02:37;47392.63;;;-144.02;64.87
29985;BME280;17387;42.690;23.328;2022-08-19T03:05:03;47429.19;;;-144.02;65.72
29985;BME280;17387;42.690;23.328;2022-08-19T03:07:29;47352.00;;;-144.02;65.95
29985;BME280;17387;42.690;23.328;2022-08-19T03:09:55;47439.34;;;-144.02;66.47
29985;BME280;17387;42.690;23.328;2022-08-19T03:12:20;47433.25;;;-144.02;66.54
29985;BME280;17387;42.690;23.328;2022-08-19T03:14:46;47451.53;;;-144.02;67.27
29985;BME280;17387;42.690;23.328;2022-08-19T03:17:11;47410.91;;;-144.02;67.77
29985;BME280;17387;42.690;23.328;2022-08-19T03:19:37;47414.97;;;-144.02;67.77
29985;BME280;17387;42.690;23.328;2022-08-19T03:22:03;47419.03;;;-144.02;67.93
29985;BME280;17387;42.690;23.328;2022-08-19T03:24:30;47461.69;;;-144.02;68.92
29985;BME280;17387;42.690;23.328;2022-08-19T03:26:56;47435.28;;;-144.02;69.33
29985;BME280;17387;42.690;23.328;2022-08-19T03:29:26;47425.13;;;-144.02;69.60
29985;BME280;17387;42.690;23.328;2022-08-19T03:31:52;47453.56;;;-144.02;68.58
29985;BME280;17387;42.690;23.328;2022-08-19T03:34:24;47461.69;;;-144.02;68.68
29985;BME280;17387;42.690;23.328;2022-08-19T03:36:53;47475.91;;;-144.02;69.58
29985;BME280;17387;42.690;23.328;2022-08-19T03:39:20;47486.06;;;-144.02;69.29
29985;BME280;17387;42.690;23.328;2022-08-19T03:41:47;47419.03;;;-144.02;69.00
29985;BME280;17387;42.690;23.328;2022-08-19T03:44:17;47449.50;;;-144.02;68.98
29985;BME280;17387;42.690;23.328;2022-08-19T03:46:47;47453.56;;;-144.02;69.16
29985;BME280;17387;42.690;23.328;2022-08-19T03:49:13;47429.19;;;-144.02;69.33
29985;BME280;17387;42.690;23.328;2022-08-19T03:51:39;47394.66;;;-144.02;69.21
29985;BME280;17387;42.690;23.328;2022-08-19T03:54:07;47425.13;;;-144.02;69.17
29985;BME280;17387;42.690;23.328;2022-08-19T03:56:35;47445.44;;;-144.02;68.44
29985;BME280;17387;42.690;23.328;2022-08-19T03:59:01;47427.16;;;-144.02;67.98
29985;BME280;17387;42.690;23.328;2022-08-19T04:01:28;47449.50;;;-144.02;67.74
29985;BME280;17387;42.690;23.328;2022-08-19T04:03:56;47419.03;;;-144.02;66.09
29985;BME280;17387;42.690;23.328;2022-08-19T04:06:24;47400.75;;;-144.02;66.55
29985;BME280;17387;42.690;23.328;2022-08-19T04:08:52;47402.78;;;-144.02;66.17
29985;BME280;17387;42.690;23.328;2022-08-19T04:11:23;47390.59;;;-144.02;66.05
29985;BME280;17387;42.690;23.328;2022-08-19T04:13:50;47402.78;;;-144.02;66.25
29985;BME280;17387;42.690;23.328;2022-08-19T04:16:17;47445.44;;;-144.02;66.77
29985;BME280;17387;42.690;23.328;2022-08-19T04:18:44;47433.25;;;-144.02;67.14
29985;BME280;17387;42.690;23.328;2022-08-19T04:21:19;47429.19;;;-144.02;67.23
29985;BME280;17387;42.690;23.328;2022-08-19T04:23:45;47449.50;;;-144.02;67.15
29985;BME280;17387;42.690;23.328;2022-08-19T04:26:21;47406.84;;;-144.02;67.11
29985;BME280;17387;42.690;23.328;2022-08-19T04:28:48;47404.81;;;-144.02;67.49
29985;BME280;17387;42.690;23.328;2022-08-19T04:31:23;47419.03;;;-144.02;67.56
29985;BME280;17387;42.690;23.328;2022-08-19T04:33:58;47414.97;;;-144.02;66.92
29985;BME280;17387;42.690;23.328;2022-08-19T04:36:29;47423.09;;;-144.02;66.98
29985;BME280;17387;42.690;23.328;2022-08-19T04:38:56;47404.81;;;-144.02;66.74
29985;BME280;17387;42.690;23.328;2022-08-19T04:41:22;47447.47;;;-144.02;66.71
29985;BME280;17387;42.690;23.328;2022-08-19T04:44:07;47431.22;;;-144.02;66.10
29985;BME280;17387;42.690;23.328;2022-08-19T04:46:33;47441.38;;;-144.02;65.82
29985;BME280;17387;42.690;23.328;2022-08-19T04:48:59;47406.84;;;-144.02;65.10
29985;BME280;17387;42.690;23.328;2022-08-19T04:51:25;47386.53;;;-144.02;64.85
29985;BME280;17387;42.690;23.328;2022-08-19T04:53:51;47417.00;;;-144.02;64.68
29985;BME280;17387;42.690;23.328;2022-08-19T04:56:18;47506.38;;;-144.02;64.67
29985;BME280;17387;42.690;23.328;2022-08-19T04:58:47;47437.31;;;-144.02;64.37
29985;BME280;17387;42.690;23.328;2022-08-19T05:01:18;47439.34;;;-144.02;64.12
29985;BME280;17387;42.690;23.328;2022-08-19T05:03:44;47423.09;;;-144.02;63.80
29985;BME280;17387;42.690;23.328;2022-08-19T05:06:12;47425.13;;;-144.02;63.47
29985;BME280;17387;42.690;23.328;2022-08-19T05:08:40;47404.81;;;-144.02;63.48
29985;BME280;17387;42.690;23.328;2022-08-19T05:13:44;47356.06;;;-144.02;62.38
29985;BME280;17387;42.690;23.328;2022-08-19T05:16:11;47398.72;;;-144.02;62.90
29985;BME280;17387;42.690;23.328;2022-08-19T05:18:38;47437.31;;;-144.02;62.26
29985;BME280;17387;42.690;23.328;2022-08-19T05:21:22;47349.97;;;-144.02;62.13
29985;BME280;17387;42.690;23.328;2022-08-19T05:24:22;47417.00;;;-144.02;61.66
29985;BME280;17387;42.690;23.328;2022-08-19T05:26:49;47396.69;;;-144.02;61.42
29985;BME280;17387;42.690;23.328;2022-08-19T05:29:17;47394.66;;;-144.02;61.54
29985;BME280;17387;42.690;23.328;2022-08-19T05:31:43;47439.34;;;-144.02;60.47
29985;BME280;17387;42.690;23.328;2022-08-19T05:34:09;47400.75;;;-144.02;59.61
29985;BME280;17387;42.690;23.328;2022-08-19T05:36:37;47421.06;;;-144.02;59.56
29985;BME280;17387;42.690;23.328;2022-08-19T05:39:15;47423.09;;;-144.02;58.83
29985;BME280;17387;42.690;23.328;2022-08-19T05:41:53;47421.06;;;-144.02;58.65
29985;BME280;17387;42.690;23.328;2022-08-19T05:44:19;47408.88;;;-144.02;58.35
29985;BME280;17387;42.690;23.328;2022-08-19T05:46:46;47392.63;;;-144.02;58.11
29985;BME280;17387;42.690;23.328;2022-08-19T05:49:14;47425.13;;;-144.02;58.07
29985;BME280;17387;42.690;23.328;2022-08-19T05:51:41;47329.66;;;-144.02;57.87
29985;BME280;17387;42.690;23.328;2022-08-19T05:54:08;47516.53;;;-144.02;58.12
29985;BME280;17387;42.690;23.328;2022-08-19T05:56:34;47364.19;;;-144.02;57.82
29985;BME280;17387;42.690;23.328;2022-08-19T05:59:04;47360.13;;;-144.02;57.22
29985;BME280;17387;42.690;23.328;2022-08-19T06:01:33;47374.34;;;-144.02;56.89
29985;BME280;17387;42.690;23.328;2022-08-19T06:04:00;47384.50;;;-144.02;56.25
29985;BME280;17387;42.690;23.328;2022-08-19T06:06:25;47362.16;;;-144.02;54.93
29985;BME280;17387;42.690;23.328;2022-08-19T06:08:51;47386.53;;;-144.02;54.73
29985;BME280;17387;42.690;23.328;2022-08-19T06:13:43;47380.44;;;-144.02;53.60
29985;BME280;17387;42.690;23.328;2022-08-19T06:16:08;47368.25;;;-144.02;53.37
29985;BME280;17387;42.690;23.328;2022-08-19T06:18:34;47364.19;;;-144.02;53.20
29985;BME280;17387;42.690;23.328;2022-08-19T06:20:59;47347.94;;;-144.02;52.63
29985;BME280;17387;42.690;23.328;2022-08-19T06:23:28;47392.63;;;-144.02;52.71
29985;BME280;17387;42.690;23.328;2022-08-19T06:25:54;47398.72;;;-144.02;52.67
29985;BME280;17387;42.690;23.328;2022-08-19T06:28:20;47376.38;;;-144.02;52.81
29985;BME280;17387;42.690;23.328;2022-08-19T06:30:46;47349.97;;;-144.02;52.22
29985;BME280;17387;42.690;23.328;2022-08-19T06:33:11;47352.00;;;-144.02;52.30
29985;BME280;17387;42.690;23.328;2022-08-19T06:35:40;47368.25;;;-144.02;51.24
29985;BME280;17387;42.690;23.328;2022-08-19T06:38:06;47337.78;;;-144.02;51.90
29985;BME280;17387;42.690;23.328;2022-08-19T06:40:35;47451.53;;;-144.02;51.80
29985;BME280;17387;42.690;23.328;2022-08-19T06:43:02;47414.97;;;-144.02;51.45
29985;BME280;17387;42.690;23.328;2022-08-19T06:45:28;47376.38;;;-144.02;50.94
29985;BME280;17387;42.690;23.328;2022-08-19T06:47:53;47368.25;;;-144.02;50.62
29985;BME280;17387;42.690;23.328;2022-08-19T06:50:21;47392.63;;;-144.02;50.21
29985;BME280;17387;42.690;23.328;2022-08-19T06:52:47;47362.16;;;-144.02;50.13
29985;BME280;17387;42.690;23.328;2022-08-19T06:55:12;47392.63;;;-144.02;49.96
29985;BME280;17387;42.690;23.328;2022-08-19T06:57:38;47347.94;;;-144.02;50.70
29985;BME280;17387;42.690;23.328;2022-08-19T07:00:05;47360.13;;;-144.02;49.52
29985;BME280;17387;42.690;23.328;2022-08-19T07:02:32;47352.00;;;-144.02;48.93
29985;BME280;17387;42.690;23.328;2022-08-19T07:04:57;47317.47;;;-144.02;49.37
29985;BME280;17387;42.690;23.328;2022-08-19T07:07:23;47356.06;;;-144.02;48.44
29985;BME280;17387;42.690;23.328;2022-08-19T07:09:50;47347.94;;;-144.02;48.12
29985;BME280;17387;42.690;23.328;2022-08-19T07:12:15;47378.41;;;-144.02;48.21
29985;BME280;17387;42.690;23.328;2022-08-19T07:14:42;47360.13;;;-144.02;48.01
29985;BME280;17387;42.690;23.328;2022-08-19T07:17:10;47473.88;;;-144.02;48.19
29985;BME280;17387;42.690;23.328;2022-08-19T07:19:39;47360.13;;;-144.02;47.88
29985;BME280;17387;42.690;23.328;2022-08-19T07:22:06;47305.28;;;-144.02;46.68
29985;BME280;17387;42.690;23.328;2022-08-19T07:24:33;47289.03;;;-144.02;46.51
29985;BME280;17387;42.690;23.328;2022-08-19T07:27:01;47299.19;;;-144.02;46.63
29985;BME280;17387;42.690;23.328;2022-08-19T07:29:33;47347.94;;;-144.02;45.84
29985;BME280;17387;42.690;23.328;2022-08-19T07:32:00;47311.38;;;-144.02;45.73
29985;BME280;17387;42.690;23.328;2022-08-19T07:34:28;47339.81;;;-144.02;44.98
29985;BME280;17387;42.690;23.328;2022-08-19T07:36:54;47345.91;;;-144.02;45.14
29985;BME280;17387;42.690;23.328;2022-08-19T07:39:27;47337.78;;;-144.02;44.03
29985;BME280;17387;42.690;23.328;2022-08-19T07:41:54;47354.03;;;-144.02;43.75
29985;BME280;17387;42.690;23.328;2022-08-19T07:44:20;47339.81;;;-144.02;44.38
29985;BME280;17387;42.690;23.328;2022-08-19T07:46:49;47360.13;;;-144.02;44.12
29985;BME280;17387;42.690;23.328;2022-08-19T07:49:16;47352.00;;;-144.02;43.91
29985;BME280;17387;42.690;23.328;2022-08-19T07:51:54;47380.44;;;-144.02;42.39
29985;BME280;17387;42.690;23.328;2022-08-19T07:54:21;47319.50;;;-144.02;41.87
29985;BME280;17387;42.690;23.328;2022-08-19T07:56:47;47260.59;;;-144.02;41.45
29985;BME280;17387;42.690;23.328;2022-08-19T07:59:12;47331.69;;;-144.02;41.50
29985;BME280;17387;42.690;23.328;2022-08-19T08:01:38;47305.28;;;-144.02;41.53
29985;BME280;17387;42.690;23.328;2022-08-19T08:04:05;47282.94;;;-144.02;41.56
29985;BME280;17387;42.690;23.328;2022-08-19T08:06:50;47258.56;;;-144.02;40.97
29985;BME280;17387;42.690;23.328;2022-08-19T08:09:37;47311.38;;;-144.02;41.07
29985;BME280;17387;42.690;23.328;2022-08-19T08:12:17;47217.97;;;-144.02;41.00
29985;BME280;17387;42.690;23.328;2022-08-19T08:14:46;47360.13;;;-144.02;40.63
29985;BME280;17387;42.690;23.328;2022-08-19T08:17:14;47232.16;;;-144.02;39.78
29985;BME280;17387;42.690;23.328;2022-08-19T08:19:40;47315.44;;;-144.02;38.66
29985;BME280;17387;42.690;23.328;2022-08-19T08:22:07;47236.22;;;-144.02;38.12
29985;BME280;17387;42.690;23.328;2022-08-19T08:24:33;47297.16;;;-144.02;38.16
29985;BME280;17387;42.690;23.328;2022-08-19T08:27:00;47266.69;;;-144.02;38.06
29985;BME280;17387;42.690;23.328;2022-08-19T08:29:30;47262.63;;;-144.02;37.99
29985;BME280;17387;42.690;23.328;2022-08-19T08:31:56;47274.81;;;-144.02;37.25
29985;BME280;17387;42.690;23.328;2022-08-19T08:34:22;47282.94;;;-144.02;36.38
29985;BME280;17387;42.690;23.328;2022-08-19T08:36:47;47256.53;;;-144.02;36.58
29985;BME280;17387;42.690;23.328;2022-08-19T08:39:15;47268.72;;;-144.02;36.95
29985;BME280;17387;42.690;23.328;2022-08-19T08:44:21;47299.19;;;-144.02;35.16
29985;BME280;17387;42.690;23.328;2022-08-19T08:47:00;47274.81;;;-144.02;34.67
29985;BME280;17387;42.690;23.328;2022-08-19T08:49:36;47284.97;;;-144.02;34.33
29985;BME280;17387;42.690;23.328;2022-08-19T08:52:33;47238.28;;;-144.02;33.88
29985;BME280;17387;42.690;23.328;2022-08-19T08:55:10;47276.84;;;-144.02;33.45
29985;BME280;17387;42.690;23.328;2022-08-19T08:57:38;47213.91;;;-144.02;33.66
29985;BME280;17387;42.690;23.328;2022-08-19T09:00:10;47220.00;;;-144.02;33.70
29985;BME280;17387;42.690;23.328;2022-08-19T09:02:38;47291.06;;;-144.02;32.49
29985;BME280;17387;42.690;23.328;2022-08-19T09:05:04;47295.13;;;-144.02;32.87
29985;BME280;17387;42.690;23.328;2022-08-19T09:07:44;47274.81;;;-144.02;32.60
29985;BME280;17387;42.690;23.328;2022-08-19T09:10:38;47270.75;;;-144.02;32.57
29985;BME280;17387;42.690;23.328;2022-08-19T09:15:58;47246.38;;;-144.02;31.87
29985;BME280;17387;42.690;23.328;2022-08-19T09:19:00;47256.53;;;-144.02;31.84
29985;BME280;17387;42.690;23.328;2022-08-19T09:21:24;47272.78;;;-144.02;31.29
29985;BME280;17387;42.690;23.328;2022-08-19T09:23:51;47266.69;;;-144.02;30.52
29985;BME280;17387;42.690;23.328;2022-08-19T09:26:19;47258.56;;;-144.02;30.44
29985;BME280;17387;42.690;23.328;2022-08-19T09:28:46;47213.91;;;-144.02;30.26
29985;BME280;17387;42.690;23.328;2022-08-19T09:31:21;47222.03;;;-144.02;30.12
29985;BME280;17387;42.690;23.328;2022-08-19T09:33:48;47254.50;;;-144.02;29.93
29985;BME280;17387;42.690;23.328;2022-08-19T09:36:16;47230.16;;;-144.02;29.38
29985;BME280;17387;42.690;23.328;2022-08-19T09:38:41;47274.81;;;-144.02;29.48
29985;BME280;17387;42.690;23.328;2022-08-19T09:41:13;47226.09;;;-144.02;28.99
29985;BME280;17387;42.690;23.328;2022-08-19T09:43:40;47230.16;;;-144.02;28.71
29985;BME280;17387;42.690;23.328;2022-08-19T09:46:06;47230.16;;;-144.02;28.99
29985;BME280;17387;42.690;23.328;2022-08-19T09:48:33;47307.31;;;-144.02;28.83
29985;BME280;17387;42.690;23.328;2022-08-19T09:51:08;47289.03;;;-144.02;28.43
29985;BME280;17387;42.690;23.328;2022-08-19T09:53:35;47234.22;;;-144.02;27.77
29985;BME280;17387;42.690;23.328;2022-08-19T09:56:01;47293.09;;;-144.02;27.76
29985;BME280;17387;42.690;23.328;2022-08-19T09:58:27;47220.00;;;-144.02;27.96
29985;BME280;17387;42.690;23.328;2022-08-19T10:00:55;47258.56;;;-144.02;27.69
29985;BME280;17387;42.690;23.328;2022-08-19T10:03:21;47250.44;;;-144.02;27.24
29985;BME280;17387;42.690;23.328;2022-08-19T10:05:46;47217.97;;;-144.02;27.78
29985;BME280;17387;42.690;23.328;2022-08-19T10:08:20;47197.66;;;-144.02;27.73
29985;BME280;17387;42.690;23.328;2022-08-19T10:10:46;47244.34;;;-144.02;27.11
29985;BME280;17387;42.690;23.328;2022-08-19T10:13:14;47191.56;;;-144.02;27.51
29985;BME280;17387;42.690;23.328;2022-08-19T10:15:40;47226.09;;;-144.02;27.59
29985;BME280;17387;42.690;23.328;2022-08-19T10:18:06;47213.91;;;-144.02;27.89
29985;BME280;17387;42.690;23.328;2022-08-19T10:20:32;47215.94;;;-144.02;27.67
29985;BME280;17387;42.690;23.328;2022-08-19T10:22:58;47238.28;;;-144.02;27.29
29985;BME280;17387;42.690;23.328;2022-08-19T10:25:26;47240.28;;;-144.02;27.69
29985;BME280;17387;42.690;23.328;2022-08-19T10:27:52;47150.94;;;-144.02;27.74
29985;BME280;17387;42.690;23.328;2022-08-19T10:30:19;47299.19;;;-144.02;27.57
29985;BME280;17387;42.690;23.328;2022-08-19T10:32:45;47222.03;;;-144.02;27.71
29985;BME280;17387;42.690;23.328;2022-08-19T10:35:11;47173.28;;;-144.02;27.42
29985;BME280;17387;42.690;23.328;2022-08-19T10:37:38;47211.88;;;-144.02;27.69
29985;BME280;17387;42.690;23.328;2022-08-19T10:40:06;47217.97;;;-144.02;27.95
29985;BME280;17387;42.690;23.328;2022-08-19T10:42:33;47242.31;;;-144.02;27.81
29985;BME280;17387;42.690;23.328;2022-08-19T10:44:59;47215.94;;;-144.02;27.46
29985;BME280;17387;42.690;23.328;2022-08-19T10:47:26;47222.03;;;-144.02;27.83
29985;BME280;17387;42.690;23.328;2022-08-19T10:49:53;47220.00;;;-144.02;27.33
29985;BME280;17387;42.690;23.328;2022-08-19T10:52:48;47195.63;;;-144.02;27.48
29985;BME280;17387;42.690;23.328;2022-08-19T10:55:14;47201.72;;;-144.02;27.41
29985;BME280;17387;42.690;23.328;2022-08-19T10:57:58;47238.28;;;-144.02;27.51
29985;BME280;17387;42.690;23.328;2022-08-19T11:00:24;47234.22;;;-144.02;27.54
29985;BME280;17387;42.690;23.328;2022-08-19T11:02:51;47205.78;;;-144.02;27.52
29985;BME280;17387;42.690;23.328;2022-08-19T11:05:17;47356.06;;;-144.02;27.49
29985;BME280;17387;42.690;23.328;2022-08-19T11:07:43;47181.41;;;-144.02;27.47
29985;BME280;17387;42.690;23.328;2022-08-19T11:10:12;47349.97;;;-144.02;27.05
29985;BME280;17387;42.690;23.328;2022-08-19T11:12:39;47244.34;;;-144.02;27.21
29985;BME280;17387;42.690;23.328;2022-08-19T11:15:06;47179.38;;;-144.02;27.03
29985;BME280;17387;42.690;23.328;2022-08-19T11:17:34;47211.88;;;-144.02;27.07
29985;BME280;17387;42.690;23.328;2022-08-19T11:20:02;47240.28;;;-144.02;27.05
29985;BME280;17387;42.690;23.328;2022-08-19T11:22:31;47242.31;;;-144.02;26.92
29985;BME280;17387;42.690;23.328;2022-08-19T11:24:59;47183.44;;;-144.02;26.93
29985;BME280;17387;42.690;23.328;2022-08-19T11:27:24;47205.78;;;-144.02;26.67
29985;BME280;17387;42.690;23.328;2022-08-19T11:29:50;47205.78;;;-144.02;26.63
29985;BME280;17387;42.690;23.328;2022-08-19T11:32:17;47177.34;;;-144.02;26.67
29985;BME280;17387;42.690;23.328;2022-08-19T11:34:43;47238.28;;;-144.02;26.86
29985;BME280;17387;42.690;23.328;2022-08-19T11:37:08;47067.66;;;-144.02;26.79
29985;BME280;17387;42.690;23.328;2022-08-19T11:39:35;47209.84;;;-144.02;26.83
29985;BME280;17387;42.690;23.328;2022-08-19T11:42:03;47220.00;;;-144.02;26.65
29985;BME280;17387;42.690;23.328;2022-08-19T11:44:50;47191.56;;;-144.02;26.73
29985;BME280;17387;42.690;23.328;2022-08-19T11:47:15;47152.97;;;-144.02;26.45
29985;BME280;17387;42.690;23.328;2022-08-19T11:49:41;47205.78;;;-144.02;26.49
29985;BME280;17387;42.690;23.328;2022-08-19T11:52:07;47173.28;;;-144.02;26.67
29985;BME280;17387;42.690;23.328;2022-08-19T11:54:33;47193.59;;;-144.02;26.23
29985;BME280;17387;42.690;23.328;2022-08-19T11:56:58;47179.38;;;-144.02;26.57
29985;BME280;17387;42.690;23.328;2022-08-19T11:59:24;47191.56;;;-144.02;26.81
29985;BME280;17387;42.690;23.328;2022-08-19T12:01:51;47217.97;;;-144.02;26.63
29985;BME280;17387;42.690;23.328;2022-08-19T12:04:17;47195.63;;;-144.02;26.60
29985;BME280;17387;42.690;23.328;2022-08-19T12:06:45;47282.94;;;-144.02;25.83
29985;BME280;17387;42.690;23.328;2022-08-19T12:09:11;47207.81;;;-144.02;25.93
29985;BME280;17387;42.690;23.328;2022-08-19T12:11:37;47167.19;;;-144.02;26.35
29985;BME280;17387;42.690;23.328;2022-08-19T12:14:03;47189.53;;;-144.02;26.73
29985;BME280;17387;42.690;23.328;2022-08-19T12:16:30;47165.16;;;-144.02;26.43
29985;BME280;17387;42.690;23.328;2022-08-19T12:18:58;47193.59;;;-144.02;26.23
29985;BME280;17387;42.690;23.328;2022-08-19T12:21:28;47163.13;;;-144.02;25.80
29985;BME280;17387;42.690;23.328;2022-08-19T12:23:54;47193.59;;;-144.02;25.85
29985;BME280;17387;42.690;23.328;2022-08-19T12:26:20;47142.81;;;-144.02;25.52
29985;BME280;17387;42.690;23.328;2022-08-19T12:28:46;47136.72;;;-144.02;25.69
29985;BME280;17387;42.690;23.328;2022-08-19T12:31:12;47152.97;;;-144.02;25.91
29985;BME280;17387;42.690;23.328;2022-08-19T12:33:38;47155.00;;;-144.02;25.48
29985;BME280;17387;42.690;23.328;2022-08-19T12:36:06;47132.66;;;-144.02;25.07
29985;BME280;17387;42.690;23.328;2022-08-19T12:38:32;47146.88;;;-144.02;25.31
29985;BME280;17387;42.690;23.328;2022-08-19T12:40:59;47100.16;;;-144.02;24.06
29985;BME280;17387;42.690;23.328;2022-08-19T12:43:24;47098.13;;;-144.02;23.60
29985;BME280;17387;42.690;23.328;2022-08-19T12:45:50;47098.13;;;-144.02;23.07
29985;BME280;17387;42.690;23.328;2022-08-19T12:48:16;47069.69;;;-144.02;22.37